Terminal Aerodrome Forecast
Issued by NWS

Home | Current Version | Previous Version | Graphics & Text | Print | Product List | Glossary On
Versions: 1 2 3 4 5 6 7 8 9 10 11 12 13 14 15 16 17 18 19
000
FTUS43 KOAX 292320
TAFCDR
TAF
KCDR 292320Z 3000/3024 18011KT 6SM FU SKC
     FM300400 19012G26KT P6SM SKC
     FM300900 21010KT P6SM SKC
     FM301800 22016G23KT P6SM SKC=

USA.gov is the U.S. government's official web portal to all federal, state and local government web resources and services.